Time;durP1;ratioP1;P1;durP2;ratioP2;P2;SDS_P1;SDS_P2;PMS_P1;PMS_P2;Temp;Humidity;BMP_temperature;BMP_pressure;BME280_temperature;BME280_humidity;BME280_pressure;Samples;Min_cycle;Max_cycle;Signal;HPM_P1;HPM_P2
2022/03/15 00:02:21;;;;;;;29.75;11.90;;;3.20;99.90;;;;;;4986118;28;20057;-71
2022/03/15 00:04:47;;;;;;;25.52;11.93;;;3.20;99.90;;;;;;4930354;28;149180;-70
2022/03/15 00:07:15;;;;;;;31.15;12.73;;;3.20;99.90;;;;;;4967995;28;20404;-70
2022/03/15 00:09:42;;;;;;;26.85;11.23;;;3.30;99.90;;;;;;4941651;28;261597;-70
2022/03/15 00:12:10;;;;;;;25.83;12.38;;;3.30;99.90;;;;;;4984588;28;20058;-71
2022/03/15 00:14:40;;;;;;;37.67;14.73;;;3.30;99.90;;;;;;4952016;28;241550;-71
2022/03/15 00:17:06;;;;;;;34.33;15.05;;;3.30;99.90;;;;;;4999054;28;20069;-71
2022/03/15 00:19:33;;;;;;;33.65;15.10;;;3.30;99.90;;;;;;4949700;28;262698;-71
2022/03/15 00:21:59;;;;;;;32.17;14.82;;;3.30;99.90;;;;;;4972851;28;20091;-72
2022/03/15 00:24:25;;;;;;;31.52;15.00;;;3.40;99.90;;;;;;4948130;28;278255;-71
2022/03/15 00:26:54;;;;;;;35.00;15.35;;;3.40;99.90;;;;;;5005957;28;20058;-71
2022/03/15 00:29:23;;;;;;;34.53;14.95;;;3.40;99.90;;;;;;4951856;28;253140;-70
2022/03/15 00:31:49;;;;;;;36.47;16.15;;;3.40;99.90;;;;;;4994335;28;20069;-71
2022/03/15 00:34:16;;;;;;;38.58;16.15;;;3.40;99.90;;;;;;4972411;28;256841;-70
2022/03/15 00:36:43;;;;;;;30.10;15.77;;;3.30;99.90;;;;;;4966637;28;20108;-70
2022/03/15 00:39:09;;;;;;;32.75;16.20;;;3.40;99.90;;;;;;4972803;28;253636;-70
2022/03/15 00:41:35;;;;;;;37.50;17.23;;;3.30;99.90;;;;;;4963357;28;20053;-71
2022/03/15 00:44:01;;;;;;;29.27;15.23;;;3.30;99.90;;;;;;4988583;28;267579;-70
2022/03/15 00:46:28;;;;;;;32.88;17.38;;;3.30;99.90;;;;;;4941330;28;20503;-71
2022/03/15 00:48:54;;;;;;;34.45;18.15;;;3.30;99.90;;;;;;4970203;28;255464;-71
2022/03/15 00:51:20;;;;;;;34.30;19.98;;;3.30;99.90;;;;;;4982841;28;20061;-71
2022/03/15 00:53:46;;;;;;;38.25;19.75;;;3.40;99.90;;;;;;4979495;28;254574;-70
2022/03/15 00:56:12;;;;;;;46.50;24.42;;;3.50;99.90;;;;;;4963365;28;20497;-71
2022/03/15 00:58:38;;;;;;;50.92;24.20;;;3.60;99.90;;;;;;4990391;28;20058;-70
2022/03/15 01:01:04;;;;;;;42.65;22.80;;;3.60;99.90;;;;;;4943195;28;256512;-71
2022/03/15 01:03:31;;;;;;;43.53;21.13;;;3.70;99.90;;;;;;4990169;28;20046;-69
2022/03/15 01:05:58;;;;;;;42.92;22.02;;;3.80;99.90;;;;;;4941455;28;279714;-71
2022/03/15 01:08:24;;;;;;;44.65;24.70;;;3.80;99.90;;;;;;4994045;28;20058;-71
2022/03/15 01:10:51;;;;;;;44.08;21.70;;;3.90;99.90;;;;;;4946032;28;152594;-71
2022/03/15 01:13:17;;;;;;;43.78;22.85;;;3.80;99.90;;;;;;4983918;28;20043;-71
2022/03/15 01:15:44;;;;;;;42.90;20.92;;;3.80;99.90;;;;;;4908980;28;247732;-69
2022/03/15 01:18:14;;;;;;;32.42;18.50;;;3.80;99.90;;;;;;4988551;28;20081;-71
2022/03/15 01:20:42;;;;;;;36.45;19.63;;;3.70;99.90;;;;;;4938970;28;66113;-70
2022/03/15 01:23:08;;;;;;;41.42;20.58;;;3.60;99.90;;;;;;4984928;28;20053;-70
2022/03/15 01:25:37;;;;;;;33.47;19.15;;;3.60;99.90;;;;;;4964785;28;76948;-71
2022/03/15 01:28:04;;;;;;;38.30;19.50;;;3.50;99.90;;;;;;4983377;28;20046;-71
2022/03/15 01:30:30;;;;;;;32.92;18.13;;;3.50;99.90;;;;;;4949411;28;269822;-71
2022/03/15 01:32:57;;;;;;;38.13;20.05;;;3.50;99.90;;;;;;4982859;28;20050;-70
2022/03/15 01:35:23;;;;;;;38.47;18.33;;;3.50;99.90;;;;;;4935787;28;105793;-71
2022/03/15 01:37:49;;;;;;;30.92;19.05;;;3.50;99.90;;;;;;4987128;28;20169;-71
2022/03/15 01:40:16;;;;;;;44.65;21.42;;;3.50;99.90;;;;;;4946500;28;276620;-71
2022/03/15 01:42:42;;;;;;;39.97;20.65;;;3.60;99.90;;;;;;4974710;28;20069;-70
2022/03/15 01:45:10;;;;;;;43.50;23.65;;;3.60;99.90;;;;;;4946833;28;260626;-71
2022/03/15 01:47:36;;;;;;;40.38;21.10;;;3.70;99.90;;;;;;4990626;28;20062;-71
2022/03/15 01:50:03;;;;;;;40.20;20.15;;;3.80;99.90;;;;;;4945321;28;252882;-71
2022/03/15 01:52:29;;;;;;;42.90;20.80;;;3.80;99.90;;;;;;4991256;28;20061;-71
2022/03/15 01:54:55;;;;;;;34.08;19.02;;;3.80;99.90;;;;;;4940785;28;177495;-71
2022/03/15 01:57:23;;;;;;;38.58;20.13;;;3.80;99.90;;;;;;4975521;28;20042;-71
2022/03/15 01:59:49;;;;;;;27.25;18.10;;;3.80;99.90;;;;;;4949836;28;255734;-72
2022/03/15 02:02:15;;;;;;;40.00;19.05;;;3.80;99.90;;;;;;4988288;28;20499;-71
2022/03/15 02:04:42;;;;;;;39.13;19.10;;;3.80;99.90;;;;;;4921005;28;269358;-70
2022/03/15 02:07:11;;;;;;;38.08;18.45;;;3.80;99.90;;;;;;4965599;28;20060;-70
2022/03/15 02:09:37;;;;;;;35.47;18.80;;;3.80;99.90;;;;;;4945031;28;270975;-71
2022/03/15 02:12:04;;;;;;;39.72;20.05;;;3.80;99.90;;;;;;4989499;28;20054;-70
2022/03/15 02:14:30;;;;;;;36.58;18.45;;;3.80;99.90;;;;;;4944377;28;207619;-70
2022/03/15 02:16:56;;;;;;;37.40;18.30;;;3.90;99.90;;;;;;4977765;28;20500;-71
2022/03/15 02:19:23;;;;;;;38.78;19.80;;;3.90;99.90;;;;;;4935788;28;252561;-71
2022/03/15 02:21:50;;;;;;;33.03;19.83;;;4.00;99.90;;;;;;4981598;28;20065;-71
2022/03/15 02:24:17;;;;;;;35.33;19.02;;;4.00;99.90;;;;;;4954986;28;269801;-71
2022/03/15 02:26:43;;;;;;;37.92;18.52;;;4.00;99.90;;;;;;4940469;28;20050;-70
2022/03/15 02:29:09;;;;;;;36.53;19.73;;;4.10;99.90;;;;;;4968261;28;270739;-71
2022/03/15 02:31:36;;;;;;;32.00;17.58;;;4.10;99.90;;;;;;4971877;28;20047;-71
2022/03/15 02:34:02;;;;;;;36.58;18.48;;;4.20;99.90;;;;;;4963725;28;270695;-71
2022/03/15 02:36:28;;;;;;;34.58;17.77;;;4.20;99.90;;;;;;4933908;28;20050;-71
2022/03/15 02:38:54;;;;;;;31.50;17.48;;;4.20;99.90;;;;;;4967268;28;255497;-70
2022/03/15 02:41:20;;;;;;;30.75;18.60;;;4.30;99.90;;;;;;4973839;28;20056;-71
2022/03/15 02:43:46;;;;;;;38.88;17.60;;;4.30;99.90;;;;;;4987107;28;261805;-71
2022/03/15 02:46:12;;;;;;;35.88;18.25;;;4.40;99.90;;;;;;4981008;28;20056;-70
2022/03/15 02:48:39;;;;;;;35.03;17.33;;;4.40;99.90;;;;;;4997382;28;20054;-71
2022/03/15 02:51:08;;;;;;;37.70;17.60;;;4.40;99.90;;;;;;4957571;28;262068;-70
2022/03/15 02:53:38;;;;;;;32.55;16.90;;;4.50;99.90;;;;;;4984175;28;20442;-70
2022/03/15 02:56:10;;;;;;;34.50;18.05;;;4.50;99.90;;;;;;4947422;28;28482;-71
2022/03/15 02:58:37;;;;;;;36.17;18.75;;;4.50;99.90;;;;;;4980978;28;20050;-71
2022/03/15 03:01:03;;;;;;;30.55;17.13;;;4.50;99.90;;;;;;4923365;28;53419;-71
2022/03/15 03:03:29;;;;;;;24.90;14.13;;;4.60;99.90;;;;;;5011623;28;20058;-71
2022/03/15 03:05:56;;;;;;;29.77;15.73;;;4.60;99.90;;;;;;4922289;28;262135;-71
2022/03/15 03:08:25;;;;;;;35.45;16.70;;;4.60;99.90;;;;;;4979290;28;20050;-71
2022/03/15 03:10:52;;;;;;;36.88;16.55;;;4.60;99.90;;;;;;4959593;28;260743;-71
2022/03/15 03:13:26;;;;;;;37.78;15.38;;;4.70;99.90;;;;;;4987675;28;20054;-71
2022/03/15 03:15:57;;;;;;;30.27;15.15;;;4.70;99.90;;;;;;4955918;28;253482;-71
2022/03/15 03:18:32;;;;;;;37.17;15.27;;;4.70;99.90;;;;;;4986454;28;20046;-71
2022/03/15 03:21:01;;;;;;;34.72;15.52;;;4.70;99.90;;;;;;4961256;28;62661;-72
2022/03/15 03:23:28;;;;;;;29.42;15.93;;;4.70;99.90;;;;;;4996857;28;20057;-72
2022/03/15 03:25:56;;;;;;;29.27;15.07;;;4.70;99.90;;;;;;4944242;28;159825;-71
2022/03/15 03:28:36;;;;;;;37.45;16.80;;;4.70;99.90;;;;;;4979612;28;20062;-72
2022/03/15 03:31:07;;;;;;;36.78;15.82;;;4.70;99.90;;;;;;4946611;28;78554;-71
2022/03/15 03:33:33;;;;;;;;;;;4.60;99.90;;;;;;4984353;28;20061;-71
2022/03/15 03:36:00;;;;;;;39.35;16.42;;;4.60;99.90;;;;;;4934337;28;73722;-71
2022/03/15 03:38:28;;;;;;;32.50;15.32;;;4.60;99.90;;;;;;4988122;28;20058;-71
2022/03/15 03:40:54;;;;;;;34.35;14.70;;;4.60;99.90;;;;;;4941393;28;259685;-71
2022/03/15 03:43:21;;;;;;;33.05;15.50;;;4.50;99.90;;;;;;4981982;28;20062;-73
2022/03/15 03:45:48;;;;;;;37.15;16.27;;;4.50;99.90;;;;;;4964843;28;268260;-71
2022/03/15 03:48:14;;;;;;;32.10;15.75;;;4.50;99.90;;;;;;4986166;28;20069;-71
2022/03/15 03:50:40;;;;;;;31.58;15.23;;;4.60;99.90;;;;;;4942329;28;251445;-71
2022/03/15 03:53:07;;;;;;;37.17;17.10;;;4.60;99.90;;;;;;4981034;28;20066;-71
2022/03/15 03:55:33;;;;;;;37.85;17.10;;;4.60;99.90;;;;;;4944952;28;124582;-71
2022/03/15 03:58:00;;;;;;;33.17;16.48;;;4.70;99.90;;;;;;4975228;28;20058;-71
2022/03/15 04:00:27;;;;;;;32.90;16.05;;;4.70;99.90;;;;;;4955484;28;86949;-71
2022/03/15 04:02:57;;;;;;;35.28;16.73;;;4.70;99.90;;;;;;4984068;28;20053;-71
2022/03/15 04:05:24;;;;;;;29.98;16.20;;;4.80;99.90;;;;;;4929480;28;235575;-71
2022/03/15 04:07:50;;;;;;;37.75;16.98;;;4.80;99.90;;;;;;4983542;28;20090;-72
2022/03/15 04:10:18;;;;;;;41.67;19.05;;;4.90;99.90;;;;;;4933836;28;178535;-72
2022/03/15 04:12:45;;;;;;;32.45;17.00;;;4.90;99.90;;;;;;4978182;28;20038;-72
2022/03/15 04:15:12;;;;;;;32.53;18.13;;;5.00;99.90;;;;;;4966912;28;102760;-71
2022/03/15 04:17:39;;;;;;;38.00;18.55;;;5.10;99.90;;;;;;4982644;28;20392;-72
2022/03/15 04:20:06;;;;;;;36.95;19.45;;;5.10;99.90;;;;;;4938827;28;185012;-72
2022/03/15 04:22:32;;;;;;;36.65;18.95;;;5.10;99.90;;;;;;4988396;28;20050;-71
2022/03/15 04:24:58;;;;;;;40.80;19.13;;;5.10;99.90;;;;;;4932418;28;217270;-71
2022/03/15 04:27:25;;;;;;;35.10;18.30;;;5.20;99.90;;;;;;4993683;28;20530;-71
2022/03/15 04:29:51;;;;;;;44.45;19.73;;;5.20;99.90;;;;;;4932585;28;75753;-71
2022/03/15 04:32:18;;;;;;;35.22;18.67;;;5.20;99.90;;;;;;4974962;28;20046;-71
2022/03/15 04:34:44;;;;;;;40.92;20.13;;;5.30;99.90;;;;;;4943533;28;271753;-71
2022/03/15 04:37:10;;;;;;;40.67;21.73;;;5.30;99.90;;;;;;4969246;28;20070;-71
2022/03/15 04:39:36;;;;;;;40.03;19.65;;;5.30;99.90;;;;;;4942706;28;20139;-71
2022/03/15 04:42:05;;;;;;;39.88;20.40;;;5.30;99.90;;;;;;4985918;28;20054;-71
2022/03/15 04:44:31;;;;;;;41.80;20.70;;;5.30;99.90;;;;;;4937805;28;249900;-71
2022/03/15 04:46:57;;;;;;;42.60;20.77;;;5.30;99.90;;;;;;4970544;28;20047;-70
2022/03/15 04:49:24;;;;;;;38.75;20.30;;;5.30;99.90;;;;;;4959966;28;126014;-71
2022/03/15 04:51:50;;;;;;;43.83;20.08;;;5.30;99.90;;;;;;4995162;28;20053;-71
2022/03/15 04:54:16;;;;;;;38.72;20.90;;;5.30;99.90;;;;;;4959659;28;259915;-71
2022/03/15 04:56:43;;;;;;;36.63;20.27;;;5.40;99.90;;;;;;4953596;28;20498;-71
2022/03/15 04:59:09;;;;;;;38.63;20.85;;;5.40;99.90;;;;;;4974385;28;257053;-71
2022/03/15 05:01:35;;;;;;;42.38;20.40;;;5.30;99.90;;;;;;4955020;28;20049;-71
2022/03/15 05:04:01;;;;;;;44.95;21.75;;;5.30;99.90;;;;;;4957123;28;252293;-71
2022/03/15 05:06:27;;;;;;;40.42;21.30;;;5.30;99.90;;;;;;4969246;28;20587;-71
2022/03/15 05:08:54;;;;;;;41.03;23.30;;;5.40;99.90;;;;;;4963693;28;264285;-71
2022/03/15 05:11:20;;;;;;;44.20;22.55;;;5.30;99.90;;;;;;4958554;28;20328;-71
2022/03/15 05:13:48;;;;;;;43.22;22.38;;;5.30;99.90;;;;;;4975215;28;267666;-71
2022/03/15 05:16:18;;;;;;;34.63;19.77;;;5.30;99.90;;;;;;4941917;28;20075;-71
2022/03/15 05:18:49;;;;;;;44.10;20.52;;;5.30;99.90;;;;;;4983439;28;20081;-71
2022/03/15 05:21:16;;;;;;;35.15;20.50;;;5.30;99.90;;;;;;4932304;28;20089;-71
2022/03/15 05:23:47;;;;;;;38.55;20.13;;;5.30;99.90;;;;;;4982818;28;20058;-72
2022/03/15 05:26:15;;;;;;;37.35;21.15;;;5.20;99.90;;;;;;4917606;28;20053;-71
2022/03/15 05:28:42;;;;;;;41.22;22.17;;;5.20;99.90;;;;;;4983047;28;20439;-71
2022/03/15 05:31:10;;;;;;;40.00;21.55;;;5.20;99.90;;;;;;4945348;28;66551;-72
2022/03/15 05:33:36;;;;;;;46.63;23.85;;;5.20;99.90;;;;;;4984570;28;20050;-72
2022/03/15 05:36:03;;;;;;;42.55;22.90;;;5.20;99.90;;;;;;4934466;28;252544;-71
2022/03/15 05:38:30;;;;;;;45.50;23.25;;;5.20;99.90;;;;;;4981029;28;20106;-72
2022/03/15 05:40:56;;;;;;;43.55;23.52;;;5.20;99.90;;;;;;4932640;28;77015;-72
2022/03/15 05:43:22;;;;;;;45.85;24.35;;;5.20;99.90;;;;;;4984105;28;20058;-72
2022/03/15 05:45:50;;;;;;;45.10;24.17;;;5.20;99.90;;;;;;4920890;28;134941;-72
2022/03/15 05:48:17;;;;;;;48.10;24.67;;;5.20;99.90;;;;;;4980765;28;20061;-72
2022/03/15 05:50:43;;;;;;;44.95;24.75;;;5.20;99.90;;;;;;4937003;28;268462;-72
2022/03/15 05:53:10;;;;;;;54.90;27.05;;;5.20;99.90;;;;;;4981429;28;20062;-72
2022/03/15 05:55:36;;;;;;;48.20;25.52;;;5.20;99.90;;;;;;4941633;28;254775;-72
2022/03/15 05:58:03;;;;;;;50.40;24.58;;;5.20;99.90;;;;;;4995278;28;20061;-72
2022/03/15 06:00:32;;;;;;;49.20;26.65;;;5.20;99.90;;;;;;4952434;28;205965;-73
2022/03/15 06:02:59;;;;;;;48.00;25.15;;;5.20;99.90;;;;;;4991440;28;20046;-71
2022/03/15 06:05:25;;;;;;;49.13;26.10;;;5.20;99.90;;;;;;4930315;28;263090;-71
2022/03/15 06:07:52;;;;;;;48.50;26.42;;;5.20;99.90;;;;;;4955993;28;20081;-71
2022/03/15 06:10:23;;;;;;;45.83;25.60;;;5.20;99.90;;;;;;4937575;28;257869;-71
2022/03/15 06:12:50;;;;;;;58.63;27.33;;;5.30;99.90;;;;;;4964741;28;20428;-71
2022/03/15 06:15:18;;;;;;;54.90;27.85;;;5.30;99.90;;;;;;4952334;28;53282;-71
2022/03/15 06:17:56;;;;;;;58.05;29.17;;;5.30;99.90;;;;;;4982881;28;20450;-71
2022/03/15 06:20:25;;;;;;;46.92;26.15;;;5.30;99.90;;;;;;4954640;28;34982;-71
2022/03/15 06:22:52;;;;;;;53.78;27.65;;;5.40;99.90;;;;;;4990471;28;20042;-72
2022/03/15 06:25:18;;;;;;;49.88;27.55;;;5.40;99.90;;;;;;4949700;28;253637;-71
2022/03/15 06:27:46;;;;;;;47.50;26.02;;;5.40;99.90;;;;;;4982696;28;20060;-71
2022/03/15 06:30:13;;;;;;;47.03;26.63;;;5.50;99.90;;;;;;4936082;28;257884;-71
2022/03/15 06:32:39;;;;;;;45.63;24.80;;;5.50;99.90;;;;;;4988972;28;20062;-72
2022/03/15 06:35:07;;;;;;;55.85;28.70;;;5.50;99.90;;;;;;4930791;28;194896;-71
2022/03/15 06:37:36;;;;;;;55.97;28.83;;;5.60;99.90;;;;;;4984560;28;20580;-71
2022/03/15 06:40:03;;;;;;;47.85;26.10;;;5.60;99.90;;;;;;4944846;28;23219;-71
2022/03/15 06:42:29;;;;;;;52.00;28.52;;;5.60;99.90;;;;;;4971560;28;20046;-71
2022/03/15 06:44:55;;;;;;;54.28;28.27;;;5.70;99.90;;;;;;4933421;28;270438;-71
2022/03/15 06:47:22;;;;;;;49.40;28.70;;;5.70;99.90;;;;;;4990137;28;20049;-71
2022/03/15 06:49:48;;;;;;;47.50;27.38;;;5.80;99.90;;;;;;4942046;28;253182;-71
2022/03/15 06:52:14;;;;;;;48.92;28.10;;;5.80;99.90;;;;;;4969151;28;20050;-73
2022/03/15 06:54:40;;;;;;;48.03;28.60;;;5.90;99.90;;;;;;4935674;28;255132;-74
2022/03/15 06:57:06;;;;;;;55.97;29.70;;;5.90;99.90;;;;;;4939576;28;20053;-74
2022/03/15 06:59:32;;;;;;;54.33;29.50;;;5.90;99.90;;;;;;4939280;28;92480;-75
2022/03/15 07:02:00;;;;;;;51.22;29.95;;;5.90;99.90;;;;;;4975494;28;20059;-74
2022/03/15 07:04:26;;;;;;;58.10;30.10;;;6.00;99.90;;;;;;4922659;28;215901;-74
2022/03/15 07:06:52;;;;;;;55.75;29.90;;;6.00;99.90;;;;;;4962534;28;20158;-74
2022/03/15 07:09:19;;;;;;;52.63;29.40;;;6.10;99.90;;;;;;4958466;28;80637;-74
2022/03/15 07:11:45;;;;;;;58.13;30.23;;;6.10;99.90;;;;;;4974995;28;20415;-74
2022/03/15 07:14:11;;;;;;;48.05;28.10;;;6.20;99.90;;;;;;4978032;28;122864;-74
2022/03/15 07:16:37;;;;;;;50.05;28.45;;;6.20;99.90;;;;;;4930630;28;20507;-74
2022/03/15 07:19:04;;;;;;;51.13;28.60;;;6.20;99.90;;;;;;4971293;28;281257;-74
2022/03/15 07:21:30;;;;;;;51.78;28.65;;;6.30;99.90;;;;;;4929185;28;20043;-75
2022/03/15 07:23:58;;;;;;;52.90;28.93;;;6.30;99.90;;;;;;4972684;28;252596;-74
2022/03/15 07:26:24;;;;;;;44.35;26.58;;;6.40;99.90;;;;;;4934038;28;20138;-73
2022/03/15 07:28:50;;;;;;;52.67;28.92;;;6.40;99.90;;;;;;4970984;28;264038;-74
2022/03/15 07:31:16;;;;;;;49.70;28.33;;;6.40;99.90;;;;;;4950422;28;20046;-73
2022/03/15 07:33:42;;;;;;;49.42;29.45;;;6.50;99.90;;;;;;4988789;28;20526;-73
2022/03/15 07:36:08;;;;;;;53.88;29.30;;;6.50;99.90;;;;;;4956243;28;231906;-73
2022/03/15 07:38:34;;;;;;;49.53;29.63;;;6.60;99.90;;;;;;4987301;28;20053;-73
2022/03/15 07:41:01;;;;;;;44.65;27.50;;;6.60;99.90;;;;;;4956761;28;20037;-73
2022/03/15 07:43:28;;;;;;;52.42;28.00;;;6.60;99.90;;;;;;4974742;28;20073;-73
2022/03/15 07:45:54;;;;;;;51.03;30.02;;;6.70;99.90;;;;;;4963796;28;258399;-73
2022/03/15 07:48:21;;;;;;;46.70;29.15;;;6.70;99.90;;;;;;4976686;28;20532;-73
2022/03/15 07:50:47;;;;;;;52.97;29.13;;;6.70;99.90;;;;;;4945685;28;143894;-73
2022/03/15 07:53:13;;;;;;;43.63;26.13;;;6.80;99.90;;;;;;4991415;28;20058;-73
2022/03/15 07:55:40;;;;;;;50.88;29.35;;;6.80;99.90;;;;;;4936302;28;244273;-73
2022/03/15 07:58:06;;;;;;;45.75;27.42;;;6.80;99.90;;;;;;4988227;28;20050;-73
2022/03/15 08:00:32;;;;;;;43.58;26.85;;;6.90;99.90;;;;;;4953102;28;268750;-73
2022/03/15 08:02:58;;;;;;;44.80;26.33;;;6.90;99.90;;;;;;4986171;28;20054;-73
2022/03/15 08:05:26;;;;;;;43.35;28.23;;;6.90;99.90;;;;;;4935189;28;136517;-74
2022/03/15 08:07:52;;;;;;;48.50;29.73;;;6.90;99.90;;;;;;4990287;28;20084;-72
2022/03/15 08:10:18;;;;;;;50.42;29.90;;;6.90;99.90;;;;;;4944751;28;228405;-73
2022/03/15 08:12:44;;;;;;;44.13;27.98;;;7.00;99.90;;;;;;4986522;28;20042;-73
2022/03/15 08:15:11;;;;;;;49.70;30.17;;;7.10;99.90;;;;;;4954537;28;20053;-72
2022/03/15 08:17:39;;;;;;;48.33;29.63;;;7.10;99.90;;;;;;5006250;28;20451;-73
2022/03/15 08:20:07;;;;;;;43.20;28.08;;;7.20;99.90;;;;;;4937591;28;89290;-73
2022/03/15 08:22:33;;;;;;;45.30;28.67;;;7.20;99.90;;;;;;4956759;28;20058;-73
2022/03/15 08:25:00;;;;;;;43.78;27.02;;;7.20;99.90;;;;;;4943396;28;118662;-72
2022/03/15 08:27:26;;;;;;;41.92;26.48;;;7.30;99.90;;;;;;4975704;28;20522;-73
2022/03/15 08:29:52;;;;;;;45.35;27.60;;;7.40;99.90;;;;;;4938673;28;109799;-72
2022/03/15 08:32:18;;;;;;;45.28;29.27;;;7.40;99.90;;;;;;4975883;28;20520;-72
2022/03/15 08:34:45;;;;;;;45.78;27.73;;;7.50;99.90;;;;;;4948088;28;254795;-72
2022/03/15 08:37:12;;;;;;;42.08;27.20;;;7.50;99.90;;;;;;4994112;28;20058;-73
2022/03/15 08:39:38;;;;;;;35.95;25.33;;;7.60;99.90;;;;;;4949224;28;66068;-73
2022/03/15 08:42:05;;;;;;;37.22;25.00;;;7.60;99.90;;;;;;4959890;28;20146;-72
2022/03/15 08:44:31;;;;;;;41.35;26.52;;;7.70;99.90;;;;;;4945194;28;102712;-73
2022/03/15 08:46:57;;;;;;;41.03;26.67;;;7.70;99.90;;;;;;4978118;28;20050;-72
2022/03/15 08:49:23;;;;;;;39.50;25.30;;;7.80;99.90;;;;;;4942044;28;208430;-72
2022/03/15 08:51:49;;;;;;;42.78;25.65;;;7.80;99.90;;;;;;4957980;28;20083;-72
2022/03/15 08:54:17;;;;;;;37.38;24.88;;;7.80;99.90;;;;;;4972929;28;20060;-73
2022/03/15 08:56:44;;;;;;;38.50;24.13;;;7.80;99.90;;;;;;4955428;28;20042;-73
2022/03/15 08:59:12;;;;;;;37.50;24.83;;;7.90;99.90;;;;;;4972764;28;177275;-73
2022/03/15 09:01:39;;;;;;;37.63;25.27;;;7.90;99.90;;;;;;4945167;28;20408;-73
2022/03/15 09:04:06;;;;;;;35.10;25.43;;;7.90;99.90;;;;;;4954655;28;262354;-73
2022/03/15 09:06:33;;;;;;;37.03;24.95;;;7.90;99.90;;;;;;4926428;28;20050;-74
2022/03/15 09:09:00;;;;;;;38.00;24.50;;;8.00;99.90;;;;;;4968975;28;268845;-73
2022/03/15 09:11:29;;;;;;;36.78;23.52;;;8.00;99.90;;;;;;4962073;28;20049;-72
2022/03/15 09:13:56;;;;;;;40.73;24.57;;;8.00;99.90;;;;;;4967889;28;265178;-73
2022/03/15 09:16:22;;;;;;;37.63;25.13;;;8.10;99.90;;;;;;4950964;28;20129;-75
2022/03/15 09:18:48;;;;;;;36.67;24.90;;;8.10;99.90;;;;;;4968344;28;274301;-73
2022/03/15 09:21:15;;;;;;;35.20;25.33;;;8.10;99.90;;;;;;4966710;28;20042;-73
2022/03/15 09:23:41;;;;;;;41.55;24.38;;;8.20;99.90;;;;;;4986826;28;20050;-72
2022/03/15 09:26:07;;;;;;;39.38;25.38;;;8.20;99.90;;;;;;4940314;28;29147;-73
2022/03/15 09:28:34;;;;;;;41.13;25.50;;;8.30;99.90;;;;;;4986006;28;20046;-73
2022/03/15 09:31:01;;;;;;;42.33;24.90;;;8.30;99.90;;;;;;4935488;28;181226;-73
2022/03/15 09:33:30;;;;;;;36.13;24.67;;;8.40;99.90;;;;;;4985429;28;20515;-73
2022/03/15 09:35:57;;;;;;;37.65;23.67;;;8.40;99.90;;;;;;4930793;28;420161;-73
2022/03/15 09:38:24;;;;;;;36.92;25.65;;;8.50;99.90;;;;;;4989759;28;20495;-73
2022/03/15 09:40:52;;;;;;;34.30;24.27;;;8.60;99.90;;;;;;4933138;28;226172;-73
2022/03/15 09:43:24;;;;;;;36.00;24.58;;;8.60;99.90;;;;;;4978627;28;20058;-73
2022/03/15 09:45:52;;;;;;;36.70;24.83;;;8.70;99.90;;;;;;4920269;28;167929;-74
2022/03/15 09:48:20;;;;;;;39.97;25.48;;;8.80;99.90;;;;;;4984484;28;20050;-73
2022/03/15 09:50:51;;;;;;;37.00;23.50;;;8.90;99.90;;;;;;4924208;28;161532;-73
2022/03/15 09:53:18;;;;;;;35.80;24.60;;;9.00;99.90;;;;;;4976792;28;20054;-74
2022/03/15 09:55:46;;;;;;;34.25;24.65;;;9.00;99.90;;;;;;4942189;28;117771;-73
2022/03/15 09:58:19;;;;;;;36.75;25.45;;;9.10;99.90;;;;;;4986630;28;20054;-73
2022/03/15 10:00:51;;;;;;;37.70;23.95;;;9.20;99.90;;;;;;4945462;28;236094;-74
2022/03/15 10:03:18;;;;;;;34.88;23.98;;;9.20;99.90;;;;;;5001939;28;20050;-74
2022/03/15 10:05:45;;;;;;;34.80;24.13;;;9.30;99.90;;;;;;4911760;28;170351;-74
2022/03/15 10:08:13;;;;;;;35.75;23.73;;;9.40;99.90;;;;;;4980837;28;20042;-74
2022/03/15 10:10:40;;;;;;;35.25;22.73;;;9.40;99.90;;;;;;4934786;28;144453;-74
2022/03/15 10:13:06;;;;;;;35.67;24.83;;;9.50;99.90;;;;;;4977445;28;20053;-74
2022/03/15 10:15:32;;;;;;;32.17;23.15;;;9.60;99.90;;;;;;4928080;28;40909;-75
2022/03/15 10:18:04;;;;;;;34.00;21.80;;;9.70;99.90;;;;;;4978586;28;20046;-75
2022/03/15 10:20:41;;;;;;;31.60;20.88;;;9.80;99.90;;;;;;4950288;28;253492;-75
2022/03/15 10:23:12;;;;;;;32.03;20.08;;;9.90;99.90;;;;;;4985772;28;20153;-75
2022/03/15 10:25:46;;;;;;;34.22;20.75;;;10.00;99.90;;;;;;4956736;28;150017;-75
2022/03/15 10:28:13;;;;;;;34.55;21.38;;;10.00;99.90;;;;;;4980734;28;20054;-75
2022/03/15 10:30:41;;;;;;;30.77;20.40;;;10.10;99.90;;;;;;4940450;28;97947;-75
2022/03/15 10:33:07;;;;;;;33.42;20.45;;;10.20;99.90;;;;;;4985596;28;20069;-74
2022/03/15 10:35:43;;;;;;;33.00;20.50;;;10.20;99.90;;;;;;4952006;28;271243;-74
2022/03/15 10:38:10;;;;;;;29.17;19.52;;;10.30;99.90;;;;;;4987095;28;20058;-73
2022/03/15 10:40:55;;;;;;;30.42;20.02;;;10.40;99.90;;;;;;4934861;28;138113;-74
2022/03/15 10:43:24;;;;;;;30.85;20.23;;;10.40;99.90;;;;;;4990905;28;20047;-73
2022/03/15 10:45:57;;;;;;;30.63;20.50;;;10.40;99.90;;;;;;4945891;28;117595;-74
2022/03/15 10:48:26;;;;;;;27.02;19.33;;;10.40;99.90;;;;;;4990175;28;20050;-73
2022/03/15 10:50:56;;;;;;;29.95;21.45;;;10.40;99.90;;;;;;4938453;28;23406;-73
2022/03/15 10:53:25;;;;;;;30.38;20.48;;;10.50;99.90;;;;;;4988400;28;20419;-74
2022/03/15 10:56:07;;;;;;;28.85;18.77;;;10.50;99.90;;;;;;4938774;28;258910;-73
2022/03/15 10:58:34;;;;;;;28.90;19.88;;;10.50;99.90;;;;;;4974486;28;20058;-72
2022/03/15 11:01:00;;;;;;;28.10;19.45;;;10.40;99.90;;;;;;4934672;28;206008;-74
2022/03/15 11:03:29;;;;;;;31.40;20.75;;;10.50;99.90;;;;;;4994826;28;20054;-73
2022/03/15 11:05:58;;;;;;;32.85;20.38;;;10.50;99.90;;;;;;4919771;28;270870;-70
2022/03/15 11:08:24;;;;;;;32.88;20.17;;;10.60;99.90;;;;;;4987680;28;20049;-73
2022/03/15 11:10:52;;;;;;;29.50;19.85;;;10.70;99.90;;;;;;4944572;28;151361;-75
2022/03/15 11:13:26;;;;;;;33.95;20.65;;;10.70;99.90;;;;;;4984567;28;20050;-75
2022/03/15 11:15:55;;;;;;;29.33;19.70;;;10.80;99.90;;;;;;4952739;28;257978;-75
2022/03/15 11:18:21;;;;;;;31.63;20.35;;;10.90;99.90;;;;;;4992425;28;20585;-76
2022/03/15 11:20:49;;;;;;;29.35;18.63;;;11.00;99.90;;;;;;4945272;28;59861;-75
2022/03/15 11:23:17;;;;;;;29.77;19.83;;;11.20;99.90;;;;;;4991437;28;20457;-76
2022/03/15 11:25:50;;;;;;;33.65;20.60;;;11.30;99.90;;;;;;4942864;28;20062;-75
2022/03/15 11:28:24;;;;;;;32.47;20.02;;;11.40;99.90;;;;;;4992023;28;20047;-76
2022/03/15 11:30:52;;;;;;;27.92;16.80;;;11.40;99.90;;;;;;4963274;28;104011;-76
2022/03/15 11:33:19;;;;;;;27.00;17.05;;;11.50;99.90;;;;;;5008792;28;20160;-76
2022/03/15 11:35:45;;;;;;;28.15;16.80;;;11.60;99.90;;;;;;4942683;28;119333;-74
2022/03/15 11:38:15;;;;;;;27.20;17.27;;;11.60;99.90;;;;;;4966826;28;20046;-75
2022/03/15 11:40:43;;;;;;;29.10;17.40;;;11.70;99.90;;;;;;4943145;28;238815;-75
2022/03/15 11:43:37;;;;;;;28.27;17.08;;;11.70;99.90;;;;;;4998375;28;20065;-75
2022/03/15 11:46:27;;;;;;;30.27;17.23;;;11.60;99.90;;;;;;4949700;28;255937;-75
2022/03/15 11:49:04;;;;;;;26.83;16.65;;;11.60;99.90;;;;;;4971767;28;251309;-78
2022/03/15 11:51:55;;;;;;;26.42;16.83;;;11.60;99.90;;;;;;4963519;28;20050;-75
2022/03/15 11:54:52;;;;;;;23.60;16.15;;;11.70;99.90;;;;;;4946279;28;193036;-75
2022/03/15 11:57:32;;;;;;;28.25;16.52;;;11.80;99.90;;;;;;4965088;28;20162;-75
2022/03/15 11:59:58;;;;;;;28.60;16.55;;;11.90;99.90;;;;;;4945960;28;158175;-75
2022/03/15 12:02:30;;;;;;;25.02;15.50;;;11.90;99.90;;;;;;4982232;28;20583;-75
2022/03/15 12:04:57;;;;;;;26.10;15.60;;;12.00;99.90;;;;;;4950526;28;174974;-77
2022/03/15 12:10:28;;;;;;;25.50;15.02;;;12.00;99.90;;;;;;4907643;28;61888;-75
2022/03/15 12:13:02;;;;;;;25.67;15.48;;;12.00;99.90;;;;;;4943391;28;20455;-75
2022/03/15 12:15:39;;;;;;;25.75;15.35;;;12.10;99.90;;;;;;4877871;29;171679;-74
2022/03/15 12:18:27;;;;;;;25.85;14.95;;;12.30;99.90;;;;;;4939077;28;20050;-74
2022/03/15 12:21:09;;;;;;;25.95;14.95;;;12.30;99.90;;;;;;4905075;28;178052;-76
2022/03/15 12:23:44;;;;;;;25.40;14.80;;;12.40;99.90;;;;;;4945007;28;20051;-77
2022/03/15 12:26:22;;;;;;;23.30;15.18;;;12.50;99.90;;;;;;4889332;29;50653;-74
2022/03/15 12:29:04;;;;;;;22.45;14.73;;;12.60;99.90;;;;;;4918157;29;129795;-75
2022/03/15 12:31:39;;;;;;;23.70;14.73;;;12.60;99.90;;;;;;4884089;28;20494;-75
2022/03/15 12:34:10;;;;;;;23.15;15.10;;;12.70;99.90;;;;;;4934088;28;114114;-76
2022/03/15 12:36:48;;;;;;;23.80;15.00;;;12.70;99.90;;;;;;4905193;28;20039;-76
2022/03/15 12:39:20;;;;;;;24.20;14.40;;;12.70;99.90;;;;;;4924496;29;22782;-75